Terminal Aerodrome Forecast
Issued by NWS

Home | Current Version | Previous Version | Graphics & Text | Print | Product List | Glossary On
Versions: 1 2 3 4 5 6 7 8 9 10 11 12 13 14 15 16 17 18 19 20 21 22
000
FTUS43 KMPX 191400 AAA
TAFAXN
TAF AMD
KAXN 191402Z 1914/2012 18017G23KT P6SM BKN015 OVC050
     FM191800 19014G20KT P6SM SCT015 OVC035
     FM192100 21012KT P6SM SCT050
     FM200800 28008KT P6SM SKC=

USA.gov is the U.S. government's official web portal to all federal, state and local government web resources and services.